Aérodrome :
LOGIN :

S'inscrire | Disclaimer

   EN    FR    IT 

 










Légende :    VFR   VFR Marginal   IFR   IFR Intensif   IFR Très Intensif
Visi : 
Plafond : 
>= 8 km
>= 3000ft
5 à 8 km
1000 à 3000 ft
1500m à 5 km
500 à 1000 ft
800 à 1500m
200 à 500 ft
< 800m
< 200 ft
Symboles :   Orages  Brouillard  Fortes neiges  Fortes précipitations  Vent > 20 kt
SIGMETs :   Divers  Orages  Givrage  Turbulence  Onde Orograph.  Cendres Volcan.







- Altitude de l'aérodrome : 156 ft
- Code IATA : LCC


LIBN - Lecce Galatine (military)

DERNIER METAR :
  • 190555Z 00000KT 2000 BR NSC 03/03 Q1022 RMK SKC VIS MIN 2000 WIND THR14 00000KT WIND THR32 00000KT YLO

METARs EXPIRÉS :
  • 190455Z 00000KT 3000 BR NSC 03/03 Q1022 RMK SKC VIS MIN 3000 WIND THR14 00000KT WIND THR32 00000KT YLO
  • 190355Z 00000KT 5000 BR NSC 04/04 Q1022 RMK SKC VIS MIN 5000 WIND THR14 00000KT WIND THR32 00000KT WHT

TAF TAF LIBN
Valide du 19 à 06h jusqu'au 19 à 15h UTC


190500Z 1906/1915 VRB03KT 3000 BR NSC
BECMG 1906/1908 5000 BR SCT008
BECMG 1908/1910 9999 FEW020
Pas de NOTAMs connus pour ce terrain.
2 SIGMETs publiés pour la FIR Brindisi (LIBB) :
 
Annulation du SIGMET 1 
LIBB SIGMET 2 VALID 190628/190820 LIIB
LIBB BRINDISI FIR CNL SIGMET 1 190620/190820 NC=
SIGMET 1  ANNULÉ :
Cendres volcaniques
LIBB SIGMET 1 VALID 190620/190820 LIIB
LIBB BRINDISI FIR VA ERUPTION MT ETNA PSN N3744 E01500 VA CLD OBS AT 0613Z MOV NW 8KT INTSF FL080/150=



MET'MAP, la Météo Aéronautique d'un coup d'oeil ! - Copyright ORBIFLY Décembre 2007 - Disclaimer

ORBIFLY MET'MAP TEAM :

Programmation & Développement : Alexandra Zaïnal
Conception & Développement : Baudouin d'Aumeries
Co-Programmation & Développement : Marc-Olivier Méhu
Soutien technique & logistique : Manuel Goepfert

Contact : metmap@orbifly.com




SOURCES & CREDITS :

   NOAA